sensor_id;sensor_type;location;lat;lon;timestamp;pressure;altitude;pressure_sealevel;temperature;humidity
39455;BME280;25155;41.890;23.446;2023-04-26T00:01:56;90934.25;;;6.40;67.04
39455;BME280;25155;41.890;23.446;2023-04-26T00:04:25;90934.31;;;6.35;67.02
39455;BME280;25155;41.890;23.446;2023-04-26T00:06:53;90939.31;;;6.32;66.88
39455;BME280;25155;41.890;23.446;2023-04-26T00:09:20;90935.00;;;6.22;66.97
39455;BME280;25155;41.890;23.446;2023-04-26T00:11:48;90936.59;;;6.18;66.70
39455;BME280;25155;41.890;23.446;2023-04-26T00:14:15;90928.34;;;6.11;66.63
39455;BME280;25155;41.890;23.446;2023-04-26T00:16:42;90928.97;;;6.02;67.08
39455;BME280;25155;41.890;23.446;2023-04-26T00:19:09;90925.28;;;6.03;67.09
39455;BME280;25155;41.890;23.446;2023-04-26T00:21:38;90921.94;;;6.03;67.02
39455;BME280;25155;41.890;23.446;2023-04-26T00:24:06;90918.41;;;5.94;66.91
39455;BME280;25155;41.890;23.446;2023-04-26T00:26:34;90917.88;;;5.92;67.11
39455;BME280;25155;41.890;23.446;2023-04-26T00:29:01;90928.81;;;5.94;66.72
39455;BME280;25155;41.890;23.446;2023-04-26T00:31:28;90921.56;;;5.91;67.05
39455;BME280;25155;41.890;23.446;2023-04-26T00:33:55;90920.75;;;5.90;67.08
39455;BME280;25155;41.890;23.446;2023-04-26T00:36:22;90923.63;;;5.89;67.30
39455;BME280;25155;41.890;23.446;2023-04-26T00:38:51;90919.81;;;5.81;67.15
39455;BME280;25155;41.890;23.446;2023-04-26T00:41:18;90922.22;;;5.77;67.71
39455;BME280;25155;41.890;23.446;2023-04-26T00:43:45;90917.84;;;5.73;67.78
39455;BME280;25155;41.890;23.446;2023-04-26T00:46:12;90917.84;;;5.73;67.98
39455;BME280;25155;41.890;23.446;2023-04-26T00:48:39;90922.25;;;5.72;68.29
39455;BME280;25155;41.890;23.446;2023-04-26T00:51:06;90920.53;;;5.62;68.03
39455;BME280;25155;41.890;23.446;2023-04-26T00:53:34;90925.22;;;5.60;68.23
39455;BME280;25155;41.890;23.446;2023-04-26T00:56:03;90931.47;;;5.59;68.06
39455;BME280;25155;41.890;23.446;2023-04-26T00:58:32;90935.22;;;5.48;68.31
39455;BME280;25155;41.890;23.446;2023-04-26T01:00:59;90933.66;;;5.47;67.82
39455;BME280;25155;41.890;23.446;2023-04-26T01:03:27;90931.06;;;5.42;67.97
39455;BME280;25155;41.890;23.446;2023-04-26T01:05:54;90929.53;;;5.41;68.19
39455;BME280;25155;41.890;23.446;2023-04-26T01:08:22;90931.34;;;5.40;67.59
39455;BME280;25155;41.890;23.446;2023-04-26T01:10:51;90934.22;;;5.39;67.91
39455;BME280;25155;41.890;23.446;2023-04-26T01:13:20;90930.59;;;5.40;67.82
39455;BME280;25155;41.890;23.446;2023-04-26T01:15:47;90936.31;;;5.37;68.07
39455;BME280;25155;41.890;23.446;2023-04-26T01:18:14;90932.47;;;5.29;68.66
39455;BME280;25155;41.890;23.446;2023-04-26T01:20:42;90931.72;;;5.28;68.81
39455;BME280;25155;41.890;23.446;2023-04-26T01:23:12;90934.84;;;5.25;68.42
39455;BME280;25155;41.890;23.446;2023-04-26T01:25:40;90927.84;;;5.26;68.27
39455;BME280;25155;41.890;23.446;2023-04-26T01:28:07;90928.34;;;5.28;68.24
39455;BME280;25155;41.890;23.446;2023-04-26T01:30:34;90934.59;;;5.27;68.18
39455;BME280;25155;41.890;23.446;2023-04-26T01:33:01;90943.44;;;5.26;68.67
39455;BME280;25155;41.890;23.446;2023-04-26T01:35:28;90945.78;;;5.22;68.65
39455;BME280;25155;41.890;23.446;2023-04-26T01:37:55;90947.88;;;5.20;67.96
39455;BME280;25155;41.890;23.446;2023-04-26T01:40:24;90936.50;;;5.16;68.14
39455;BME280;25155;41.890;23.446;2023-04-26T01:42:51;90928.19;;;5.14;67.73
39455;BME280;25155;41.890;23.446;2023-04-26T01:45:18;90929.25;;;5.13;67.72
39455;BME280;25155;41.890;23.446;2023-04-26T01:47:45;90938.84;;;5.12;67.17
39455;BME280;25155;41.890;23.446;2023-04-26T01:50:12;90927.69;;;5.12;67.63
39455;BME280;25155;41.890;23.446;2023-04-26T01:52:39;90924.59;;;5.10;67.34
39455;BME280;25155;41.890;23.446;2023-04-26T01:55:07;90916.56;;;5.06;67.47
39455;BME280;25155;41.890;23.446;2023-04-26T01:57:36;90917.13;;;5.03;68.11
39455;BME280;25155;41.890;23.446;2023-04-26T02:00:04;90925.22;;;4.97;69.10
39455;BME280;25155;41.890;23.446;2023-04-26T02:02:31;90920.28;;;4.95;69.17
39455;BME280;25155;41.890;23.446;2023-04-26T02:04:58;90920.63;;;4.83;70.29
39455;BME280;25155;41.890;23.446;2023-04-26T02:07:25;90930.25;;;4.78;70.41
39455;BME280;25155;41.890;23.446;2023-04-26T02:09:52;90931.84;;;4.73;71.24
39455;BME280;25155;41.890;23.446;2023-04-26T02:12:19;90927.00;;;4.62;72.36
39455;BME280;25155;41.890;23.446;2023-04-26T02:14:48;90922.41;;;4.48;73.03
39455;BME280;25155;41.890;23.446;2023-04-26T02:17:15;90919.53;;;4.50;73.01
39455;BME280;25155;41.890;23.446;2023-04-26T02:19:42;90920.31;;;4.50;73.36
39455;BME280;25155;41.890;23.446;2023-04-26T02:22:10;90923.91;;;4.54;73.62
39455;BME280;25155;41.890;23.446;2023-04-26T02:24:37;90922.13;;;4.45;75.35
39455;BME280;25155;41.890;23.446;2023-04-26T02:27:04;90921.44;;;4.34;75.81
39455;BME280;25155;41.890;23.446;2023-04-26T02:29:32;90918.03;;;4.38;75.77
39455;BME280;25155;41.890;23.446;2023-04-26T02:32:03;90912.56;;;4.45;75.04
39455;BME280;25155;41.890;23.446;2023-04-26T02:34:30;90909.41;;;4.53;75.26
39455;BME280;25155;41.890;23.446;2023-04-26T02:36:57;90910.13;;;4.59;74.46
39455;BME280;25155;41.890;23.446;2023-04-26T02:39:24;90909.59;;;4.62;74.44
39455;BME280;25155;41.890;23.446;2023-04-26T02:41:51;90914.00;;;4.67;74.17
39455;BME280;25155;41.890;23.446;2023-04-26T02:44:18;90904.59;;;4.71;74.18
39455;BME280;25155;41.890;23.446;2023-04-26T02:46:45;90911.31;;;4.77;73.91
39455;BME280;25155;41.890;23.446;2023-04-26T02:49:14;90914.94;;;4.76;73.56
39455;BME280;25155;41.890;23.446;2023-04-26T02:51:41;90914.69;;;4.78;73.77
39455;BME280;25155;41.890;23.446;2023-04-26T02:54:08;90921.66;;;4.82;73.28
39455;BME280;25155;41.890;23.446;2023-04-26T02:56:35;90912.56;;;4.85;73.51
39455;BME280;25155;41.890;23.446;2023-04-26T02:59:02;90920.31;;;4.90;73.45
39455;BME280;25155;41.890;23.446;2023-04-26T03:01:29;90914.06;;;4.91;73.18
39455;BME280;25155;41.890;23.446;2023-04-26T03:03:56;90917.72;;;4.90;73.09
39455;BME280;25155;41.890;23.446;2023-04-26T03:06:25;90932.53;;;4.89;73.23
39455;BME280;25155;41.890;23.446;2023-04-26T03:08:53;90926.78;;;4.92;72.87
39455;BME280;25155;41.890;23.446;2023-04-26T03:11:20;90932.78;;;4.93;72.68
39455;BME280;25155;41.890;23.446;2023-04-26T03:13:47;90928.34;;;4.93;73.07
39455;BME280;25155;41.890;23.446;2023-04-26T03:16:14;90917.91;;;4.99;72.76
39455;BME280;25155;41.890;23.446;2023-04-26T03:18:41;90925.16;;;5.02;72.49
39455;BME280;25155;41.890;23.446;2023-04-26T03:21:08;90921.53;;;5.03;72.76
39455;BME280;25155;41.890;23.446;2023-04-26T03:23:37;90920.50;;;4.99;73.47
39455;BME280;25155;41.890;23.446;2023-04-26T03:26:05;90924.16;;;4.98;73.56
39455;BME280;25155;41.890;23.446;2023-04-26T03:28:32;90928.84;;;4.95;74.30
39455;BME280;25155;41.890;23.446;2023-04-26T03:30:59;90927.34;;;4.89;74.39
39455;BME280;25155;41.890;23.446;2023-04-26T03:33:26;90933.06;;;4.86;74.40
39455;BME280;25155;41.890;23.446;2023-04-26T03:35:53;90929.94;;;4.89;74.18
39455;BME280;25155;41.890;23.446;2023-04-26T03:38:20;90939.25;;;4.90;74.20
39455;BME280;25155;41.890;23.446;2023-04-26T03:40:49;90933.31;;;4.90;74.44
39455;BME280;25155;41.890;23.446;2023-04-26T03:43:16;90922.44;;;4.88;75.01
39455;BME280;25155;41.890;23.446;2023-04-26T03:45:46;90919.59;;;4.79;75.67
39455;BME280;25155;41.890;23.446;2023-04-26T03:48:14;90918.38;;;4.71;75.92
39455;BME280;25155;41.890;23.446;2023-04-26T03:50:42;90926.47;;;4.65;76.70
39455;BME280;25155;41.890;23.446;2023-04-26T03:53:10;90919.25;;;4.56;76.95
39455;BME280;25155;41.890;23.446;2023-04-26T03:55:37;90917.66;;;4.61;76.99
39455;BME280;25155;41.890;23.446;2023-04-26T03:58:06;90931.16;;;4.57;77.55
39455;BME280;25155;41.890;23.446;2023-04-26T04:00:33;90928.63;;;4.47;78.33
39455;BME280;25155;41.890;23.446;2023-04-26T04:03:00;90932.00;;;4.43;78.56
39455;BME280;25155;41.890;23.446;2023-04-26T04:05:27;90934.91;;;4.36;78.54
39455;BME280;25155;41.890;23.446;2023-04-26T04:07:55;90936.53;;;4.27;79.03
39455;BME280;25155;41.890;23.446;2023-04-26T04:10:22;90933.66;;;4.23;79.13
39455;BME280;25155;41.890;23.446;2023-04-26T04:12:49;90934.47;;;4.24;78.85
39455;BME280;25155;41.890;23.446;2023-04-26T04:15:18;90912.16;;;4.17;78.50
39455;BME280;25155;41.890;23.446;2023-04-26T04:17:46;90924.06;;;4.29;78.81
39455;BME280;25155;41.890;23.446;2023-04-26T04:20:13;90933.38;;;4.35;78.61
39455;BME280;25155;41.890;23.446;2023-04-26T04:22:40;90928.91;;;4.41;78.55
39455;BME280;25155;41.890;23.446;2023-04-26T04:25:08;90940.38;;;4.29;79.19
39455;BME280;25155;41.890;23.446;2023-04-26T04:27:36;90929.00;;;4.25;79.19
39455;BME280;25155;41.890;23.446;2023-04-26T04:30:05;90928.19;;;4.30;79.38
39455;BME280;25155;41.890;23.446;2023-04-26T04:32:35;90929.72;;;4.36;79.23
39455;BME280;25155;41.890;23.446;2023-04-26T04:35:04;90927.31;;;4.45;79.12
39455;BME280;25155;41.890;23.446;2023-04-26T04:37:31;90923.94;;;4.49;79.15
39455;BME280;25155;41.890;23.446;2023-04-26T04:39:59;90936.66;;;4.51;79.47
39455;BME280;25155;41.890;23.446;2023-04-26T04:42:26;90935.13;;;4.50;79.83
39455;BME280;25155;41.890;23.446;2023-04-26T04:44:54;90936.66;;;4.51;79.82
39455;BME280;25155;41.890;23.446;2023-04-26T04:47:21;90933.31;;;4.45;79.60
39455;BME280;25155;41.890;23.446;2023-04-26T04:49:50;90942.34;;;4.53;79.51
39455;BME280;25155;41.890;23.446;2023-04-26T04:52:17;90942.34;;;4.58;79.14
39455;BME280;25155;41.890;23.446;2023-04-26T04:54:46;90941.50;;;4.63;79.19
39455;BME280;25155;41.890;23.446;2023-04-26T04:57:13;90938.38;;;4.66;78.68
39455;BME280;25155;41.890;23.446;2023-04-26T04:59:41;90942.28;;;4.68;78.51
39455;BME280;25155;41.890;23.446;2023-04-26T05:02:08;90946.94;;;4.71;78.26
39455;BME280;25155;41.890;23.446;2023-04-26T05:04:36;90940.13;;;4.75;78.04
39455;BME280;25155;41.890;23.446;2023-04-26T05:07:04;90943.75;;;4.80;78.24
39455;BME280;25155;41.890;23.446;2023-04-26T05:09:31;90938.00;;;4.83;77.91
39455;BME280;25155;41.890;23.446;2023-04-26T05:11:58;90939.84;;;4.82;77.82
39455;BME280;25155;41.890;23.446;2023-04-26T05:14:25;90938.81;;;4.83;77.92
39455;BME280;25155;41.890;23.446;2023-04-26T05:16:53;90940.56;;;4.93;78.29
39455;BME280;25155;41.890;23.446;2023-04-26T05:19:20;90941.50;;;5.02;77.99
39455;BME280;25155;41.890;23.446;2023-04-26T05:21:47;90939.69;;;5.08;77.46
39455;BME280;25155;41.890;23.446;2023-04-26T05:24:15;90934.44;;;5.13;77.49
39455;BME280;25155;41.890;23.446;2023-04-26T05:26:42;90936.94;;;5.23;76.94
39455;BME280;25155;41.890;23.446;2023-04-26T05:29:10;90932.75;;;5.27;77.24
39455;BME280;25155;41.890;23.446;2023-04-26T05:31:37;90934.81;;;5.30;76.69
39455;BME280;25155;41.890;23.446;2023-04-26T05:34:04;90931.66;;;5.34;77.09
39455;BME280;25155;41.890;23.446;2023-04-26T05:36:31;90929.88;;;5.34;76.52
39455;BME280;25155;41.890;23.446;2023-04-26T05:38:58;90927.50;;;5.38;76.68
39455;BME280;25155;41.890;23.446;2023-04-26T05:41:26;90929.25;;;5.42;76.36
39455;BME280;25155;41.890;23.446;2023-04-26T05:43:54;90933.88;;;5.50;76.31
39455;BME280;25155;41.890;23.446;2023-04-26T05:46:21;90932.78;;;5.57;76.17
39455;BME280;25155;41.890;23.446;2023-04-26T05:48:48;90933.00;;;5.60;75.96
39455;BME280;25155;41.890;23.446;2023-04-26T05:51:15;90927.28;;;5.63;75.63
39455;BME280;25155;41.890;23.446;2023-04-26T05:53:42;90925.97;;;5.66;75.57
39455;BME280;25155;41.890;23.446;2023-04-26T05:56:09;90919.16;;;5.70;75.42
39455;BME280;25155;41.890;23.446;2023-04-26T05:58:38;90919.38;;;5.74;75.52
39455;BME280;25155;41.890;23.446;2023-04-26T06:01:06;90925.09;;;5.76;75.23
39455;BME280;25155;41.890;23.446;2023-04-26T06:03:33;90917.78;;;5.78;75.32
39455;BME280;25155;41.890;23.446;2023-04-26T06:06:00;90919.88;;;5.76;75.78
39455;BME280;25155;41.890;23.446;2023-04-26T06:08:27;90922.03;;;5.68;75.79
39455;BME280;25155;41.890;23.446;2023-04-26T06:10:54;90923.63;;;5.64;75.09
39455;BME280;25155;41.890;23.446;2023-04-26T06:13:21;90921.03;;;5.64;75.11
39455;BME280;25155;41.890;23.446;2023-04-26T06:15:52;90917.09;;;5.67;74.53
39455;BME280;25155;41.890;23.446;2023-04-26T06:18:19;90927.00;;;5.65;74.46
39455;BME280;25155;41.890;23.446;2023-04-26T06:20:46;90925.47;;;5.64;75.10
39455;BME280;25155;41.890;23.446;2023-04-26T06:23:13;90930.88;;;5.67;75.34
39455;BME280;25155;41.890;23.446;2023-04-26T06:25:40;90928.28;;;5.67;75.41
39455;BME280;25155;41.890;23.446;2023-04-26T06:28:10;90928.84;;;5.64;74.88
39455;BME280;25155;41.890;23.446;2023-04-26T06:30:37;90922.56;;;5.65;75.32
39455;BME280;25155;41.890;23.446;2023-04-26T06:33:06;90930.13;;;5.62;75.46
39455;BME280;25155;41.890;23.446;2023-04-26T06:35:38;90933.56;;;5.57;75.53
39455;BME280;25155;41.890;23.446;2023-04-26T06:38:06;90932.78;;;5.57;75.58
39455;BME280;25155;41.890;23.446;2023-04-26T06:40:34;90935.38;;;5.57;75.33
39455;BME280;25155;41.890;23.446;2023-04-26T06:43:02;90931.22;;;5.61;75.72
39455;BME280;25155;41.890;23.446;2023-04-26T06:45:29;90941.34;;;5.57;75.64
39455;BME280;25155;41.890;23.446;2023-04-26T06:47:56;90939.06;;;5.56;75.45
39455;BME280;25155;41.890;23.446;2023-04-26T06:50:26;90939.06;;;5.56;75.81
39455;BME280;25155;41.890;23.446;2023-04-26T06:52:54;90936.63;;;5.64;76.12
39455;BME280;25155;41.890;23.446;2023-04-26T06:55:21;90942.81;;;5.68;75.72
39455;BME280;25155;41.890;23.446;2023-04-26T06:57:48;90941.28;;;5.67;75.64
39455;BME280;25155;41.890;23.446;2023-04-26T07:00:16;90942.03;;;5.68;76.37
39455;BME280;25155;41.890;23.446;2023-04-26T07:02:44;90946.22;;;5.69;75.69
39455;BME280;25155;41.890;23.446;2023-04-26T07:05:11;90944.88;;;5.72;75.55
39455;BME280;25155;41.890;23.446;2023-04-26T07:07:41;90949.25;;;5.76;75.78
39455;BME280;25155;41.890;23.446;2023-04-26T07:10:08;90948.69;;;5.79;75.57
39455;BME280;25155;41.890;23.446;2023-04-26T07:12:36;90951.56;;;5.78;75.39
39455;BME280;25155;41.890;23.446;2023-04-26T07:15:04;90952.63;;;5.77;75.60
39455;BME280;25155;41.890;23.446;2023-04-26T07:17:32;90957.44;;;5.89;75.71
39455;BME280;25155;41.890;23.446;2023-04-26T07:19:59;90957.22;;;5.85;76.30
39455;BME280;25155;41.890;23.446;2023-04-26T07:22:26;90956.78;;;5.78;75.86
39455;BME280;25155;41.890;23.446;2023-04-26T07:24:54;90960.41;;;5.77;75.99
39455;BME280;25155;41.890;23.446;2023-04-26T07:27:22;90956.78;;;5.78;75.90
39455;BME280;25155;41.890;23.446;2023-04-26T07:29:52;90953.09;;;5.84;75.91
39455;BME280;25155;41.890;23.446;2023-04-26T07:32:19;90958.66;;;5.96;75.88
39455;BME280;25155;41.890;23.446;2023-04-26T07:34:47;90952.53;;;6.11;75.63
39455;BME280;25155;41.890;23.446;2023-04-26T07:37:14;90957.13;;;6.19;75.39
39455;BME280;25155;41.890;23.446;2023-04-26T07:39:41;90963.34;;;6.23;75.12
39455;BME280;25155;41.890;23.446;2023-04-26T07:42:10;90958.56;;;6.31;75.20
39455;BME280;25155;41.890;23.446;2023-04-26T07:44:37;90955.56;;;6.42;75.49
39455;BME280;25155;41.890;23.446;2023-04-26T07:47:04;90959.09;;;6.52;75.32
39455;BME280;25155;41.890;23.446;2023-04-26T07:49:31;90956.44;;;6.57;74.54
39455;BME280;25155;41.890;23.446;2023-04-26T07:51:58;90950.59;;;6.65;74.92
39455;BME280;25155;41.890;23.446;2023-04-26T07:54:27;90946.63;;;6.68;75.19
39455;BME280;25155;41.890;23.446;2023-04-26T07:56:54;90950.09;;;6.82;75.78
39455;BME280;25155;41.890;23.446;2023-04-26T07:59:22;90950.44;;;6.94;75.66
39455;BME280;25155;41.890;23.446;2023-04-26T08:01:49;90945.88;;;7.05;75.47
39455;BME280;25155;41.890;23.446;2023-04-26T08:04:28;90948.88;;;7.12;75.32
39455;BME280;25155;41.890;23.446;2023-04-26T08:06:57;90947.19;;;7.22;75.79
39455;BME280;25155;41.890;23.446;2023-04-26T08:09:24;90944.47;;;7.32;75.84
39455;BME280;25155;41.890;23.446;2023-04-26T08:11:51;90943.44;;;7.47;75.77
39455;BME280;25155;41.890;23.446;2023-04-26T08:14:18;90942.03;;;7.55;75.39
39455;BME280;25155;41.890;23.446;2023-04-26T08:16:46;90944.53;;;7.60;74.36
39455;BME280;25155;41.890;23.446;2023-04-26T08:19:14;90946.00;;;7.66;75.19
39455;BME280;25155;41.890;23.446;2023-04-26T08:21:41;90943.59;;;7.69;75.10
39455;BME280;25155;41.890;23.446;2023-04-26T08:24:08;90946.69;;;7.71;74.31
39455;BME280;25155;41.890;23.446;2023-04-26T08:26:35;90941.38;;;7.77;74.31
39455;BME280;25155;41.890;23.446;2023-04-26T08:29:02;90941.47;;;7.85;74.48
39455;BME280;25155;41.890;23.446;2023-04-26T08:31:29;90944.59;;;7.87;74.40
39455;BME280;25155;41.890;23.446;2023-04-26T08:33:57;90941.47;;;7.85;74.05
39455;BME280;25155;41.890;23.446;2023-04-26T08:36:25;90942.47;;;7.89;74.53
39455;BME280;25155;41.890;23.446;2023-04-26T08:38:52;90939.75;;;7.95;74.42
39455;BME280;25155;41.890;23.446;2023-04-26T08:41:21;90942.28;;;8.00;73.81
39455;BME280;25155;41.890;23.446;2023-04-26T08:43:50;90941.13;;;8.06;72.97
39455;BME280;25155;41.890;23.446;2023-04-26T08:46:19;90941.91;;;8.06;72.49
39455;BME280;25155;41.890;23.446;2023-04-26T08:48:53;90947.41;;;8.05;72.40
39455;BME280;25155;41.890;23.446;2023-04-26T08:51:25;90947.13;;;8.06;71.92
39455;BME280;25155;41.890;23.446;2023-04-26T08:53:54;90947.59;;;8.08;72.05
39455;BME280;25155;41.890;23.446;2023-04-26T08:56:23;90945.97;;;8.13;71.94
39455;BME280;25155;41.890;23.446;2023-04-26T08:58:50;90943.06;;;8.14;71.91
39455;BME280;25155;41.890;23.446;2023-04-26T09:01:18;90947.41;;;8.05;70.47
39455;BME280;25155;41.890;23.446;2023-04-26T09:03:47;90935.44;;;8.04;70.64
39455;BME280;25155;41.890;23.446;2023-04-26T09:06:15;90935.44;;;8.04;70.61
39455;BME280;25155;41.890;23.446;2023-04-26T09:08:45;90933.78;;;7.94;69.69
39455;BME280;25155;41.890;23.446;2023-04-26T09:11:12;90934.94;;;8.02;70.77
39455;BME280;25155;41.890;23.446;2023-04-26T09:13:39;90933.22;;;8.11;70.78
39455;BME280;25155;41.890;23.446;2023-04-26T09:16:07;90938.81;;;8.18;71.35
39455;BME280;25155;41.890;23.446;2023-04-26T09:18:34;90939.22;;;8.25;71.55
39455;BME280;25155;41.890;23.446;2023-04-26T09:21:12;90934.06;;;8.34;71.21
39455;BME280;25155;41.890;23.446;2023-04-26T09:23:57;90939.50;;;8.24;71.29
39455;BME280;25155;41.890;23.446;2023-04-26T09:26:24;90938.13;;;8.26;72.21
39455;BME280;25155;41.890;23.446;2023-04-26T09:29:10;90940.75;;;8.26;71.44
39455;BME280;25155;41.890;23.446;2023-04-26T09:31:39;90933.88;;;8.31;70.92
39455;BME280;25155;41.890;23.446;2023-04-26T09:34:07;90939.78;;;8.22;70.60
39455;BME280;25155;41.890;23.446;2023-04-26T09:36:48;90939.19;;;8.12;71.43
39455;BME280;25155;41.890;23.446;2023-04-26T09:39:31;90929.44;;;8.03;71.44
39455;BME280;25155;41.890;23.446;2023-04-26T09:41:58;90936.50;;;8.03;71.77
39455;BME280;25155;41.890;23.446;2023-04-26T09:44:28;90939.38;;;8.01;72.18
39455;BME280;25155;41.890;23.446;2023-04-26T09:47:00;90931.94;;;7.95;72.01
39455;BME280;25155;41.890;23.446;2023-04-26T09:49:29;90927.19;;;7.97;72.45
39455;BME280;25155;41.890;23.446;2023-04-26T09:52:01;90921.69;;;7.98;72.92
39455;BME280;25155;41.890;23.446;2023-04-26T09:54:42;90913.66;;;8.08;73.08
39455;BME280;25155;41.890;23.446;2023-04-26T09:57:10;90915.91;;;8.15;71.87
39455;BME280;25155;41.890;23.446;2023-04-26T09:59:45;90921.22;;;8.10;71.80
39455;BME280;25155;41.890;23.446;2023-04-26T10:02:18;90906.72;;;8.18;72.84
39455;BME280;25155;41.890;23.446;2023-04-26T10:04:49;90911.16;;;8.31;72.70
39455;BME280;25155;41.890;23.446;2023-04-26T10:07:17;90902.16;;;8.37;72.35
39455;BME280;25155;41.890;23.446;2023-04-26T10:09:47;90896.66;;;8.39;71.25
39455;BME280;25155;41.890;23.446;2023-04-26T10:12:16;90897.59;;;8.43;71.16
39455;BME280;25155;41.890;23.446;2023-04-26T10:14:44;90898.19;;;8.40;69.16
39455;BME280;25155;41.890;23.446;2023-04-26T10:17:12;90896.06;;;8.42;69.70
39455;BME280;25155;41.890;23.446;2023-04-26T10:19:41;90904.38;;;8.44;68.33
39455;BME280;25155;41.890;23.446;2023-04-26T10:22:14;90897.03;;;8.46;68.88
39455;BME280;25155;41.890;23.446;2023-04-26T10:24:43;90886.59;;;8.46;69.20
39455;BME280;25155;41.890;23.446;2023-04-26T10:27:12;90877.03;;;8.27;66.36
39455;BME280;25155;41.890;23.446;2023-04-26T10:30:04;90892.81;;;8.22;67.56
39455;BME280;25155;41.890;23.446;2023-04-26T10:33:12;90888.47;;;8.04;68.53
39455;BME280;25155;41.890;23.446;2023-04-26T10:36:07;90880.16;;;8.16;70.07
39455;BME280;25155;41.890;23.446;2023-04-26T10:38:36;90877.16;;;8.22;69.56
39455;BME280;25155;41.890;23.446;2023-04-26T10:41:29;90879.25;;;8.20;69.91
39455;BME280;25155;41.890;23.446;2023-04-26T10:44:00;90876.56;;;8.25;68.86
39455;BME280;25155;41.890;23.446;2023-04-26T10:46:49;90878.69;;;8.23;69.30
39455;BME280;25155;41.890;23.446;2023-04-26T10:49:18;90875.41;;;8.18;68.88
39455;BME280;25155;41.890;23.446;2023-04-26T10:52:10;90872.44;;;8.11;68.83
39455;BME280;25155;41.890;23.446;2023-04-26T10:57:46;90884.38;;;8.12;70.03
39455;BME280;25155;41.890;23.446;2023-04-26T11:00:28;90872.13;;;8.12;68.81
39455;BME280;25155;41.890;23.446;2023-04-26T11:02:58;90876.66;;;8.20;69.53
39455;BME280;25155;41.890;23.446;2023-04-26T11:05:47;90879.94;;;7.98;67.53
39455;BME280;25155;41.890;23.446;2023-04-26T11:08:18;90876.97;;;7.91;69.68
39455;BME280;25155;41.890;23.446;2023-04-26T11:10:49;90870.78;;;8.01;70.51
39455;BME280;25155;41.890;23.446;2023-04-26T11:13:18;90869.41;;;8.03;69.26
39455;BME280;25155;41.890;23.446;2023-04-26T11:15:51;90871.75;;;7.91;67.89
39455;BME280;25155;41.890;23.446;2023-04-26T11:18:18;90870.78;;;8.01;67.51
39455;BME280;25155;41.890;23.446;2023-04-26T11:20:46;90873.09;;;8.02;68.13
39455;BME280;25155;41.890;23.446;2023-04-26T11:23:13;90870.88;;;7.96;65.90
39455;BME280;25155;41.890;23.446;2023-04-26T11:25:42;90876.88;;;7.82;68.28
39455;BME280;25155;41.890;23.446;2023-04-26T11:28:10;90876.00;;;7.73;69.12
39455;BME280;25155;41.890;23.446;2023-04-26T11:30:37;90873.28;;;7.78;68.19
39455;BME280;25155;41.890;23.446;2023-04-26T11:33:15;90869.72;;;7.74;68.00
39455;BME280;25155;41.890;23.446;2023-04-26T11:35:43;90867.41;;;7.73;67.38
39455;BME280;25155;41.890;23.446;2023-04-26T11:38:11;90871.28;;;7.89;67.61
39455;BME280;25155;41.890;23.446;2023-04-26T11:40:39;90859.19;;;7.93;68.13
39455;BME280;25155;41.890;23.446;2023-04-26T11:43:07;90871.72;;;8.05;68.19
39455;BME280;25155;41.890;23.446;2023-04-26T11:45:35;90858.78;;;8.14;67.13
39455;BME280;25155;41.890;23.446;2023-04-26T11:48:03;90862.44;;;8.26;65.61
39455;BME280;25155;41.890;23.446;2023-04-26T11:50:33;90856.59;;;8.43;65.63
39455;BME280;25155;41.890;23.446;2023-04-26T11:53:04;90856.31;;;8.45;65.18
39455;BME280;25155;41.890;23.446;2023-04-26T11:55:33;90855.06;;;8.42;66.97
39455;BME280;25155;41.890;23.446;2023-04-26T11:58:09;90855.81;;;8.57;67.93
39455;BME280;25155;41.890;23.446;2023-04-26T12:03:19;90859.38;;;8.61;65.49
39455;BME280;25155;41.890;23.446;2023-04-26T12:05:53;90862.22;;;8.51;66.54
39455;BME280;25155;41.890;23.446;2023-04-26T12:08:23;90858.91;;;8.45;65.76
39455;BME280;25155;41.890;23.446;2023-04-26T12:10:50;90861.94;;;8.38;65.35
39455;BME280;25155;41.890;23.446;2023-04-26T12:13:18;90863.22;;;8.27;64.73
39455;BME280;25155;41.890;23.446;2023-04-26T12:15:45;90870.56;;;8.11;65.75
39455;BME280;25155;41.890;23.446;2023-04-26T12:18:15;90871.38;;;7.98;65.14
39455;BME280;25155;41.890;23.446;2023-04-26T12:20:42;90859.09;;;7.84;65.08
39455;BME280;25155;41.890;23.446;2023-04-26T12:23:14;90869.31;;;7.67;65.73
39455;BME280;25155;41.890;23.446;2023-04-26T12:25:51;90872.19;;;7.51;65.94
39455;BME280;25155;41.890;23.446;2023-04-26T12:28:19;90865.22;;;7.47;66.58
39455;BME280;25155;41.890;23.446;2023-04-26T12:30:46;90869.22;;;7.25;68.65
39455;BME280;25155;41.890;23.446;2023-04-26T12:33:13;90882.31;;;7.39;67.60
39455;BME280;25155;41.890;23.446;2023-04-26T12:35:41;90882.91;;;7.64;66.41
39455;BME280;25155;41.890;23.446;2023-04-26T12:38:08;90896.84;;;7.87;65.73
39455;BME280;25155;41.890;23.446;2023-04-26T12:40:38;90900.63;;;7.95;65.31
39455;BME280;25155;41.890;23.446;2023-04-26T12:43:05;90910.88;;;8.05;66.03
39455;BME280;25155;41.890;23.446;2023-04-26T12:45:33;90926.94;;;8.12;66.02
39455;BME280;25155;41.890;23.446;2023-04-26T12:48:00;90936.66;;;8.20;65.44
39455;BME280;25155;41.890;23.446;2023-04-26T12:50:27;90941.53;;;8.27;64.95
39455;BME280;25155;41.890;23.446;2023-04-26T12:52:55;90952.63;;;8.33;65.42
39455;BME280;25155;41.890;23.446;2023-04-26T12:55:22;90957.38;;;8.31;64.69
39455;BME280;25155;41.890;23.446;2023-04-26T12:57:51;90963.94;;;8.28;65.25
39455;BME280;25155;41.890;23.446;2023-04-26T13:00:19;90967.91;;;8.25;65.18
39455;BME280;25155;41.890;23.446;2023-04-26T13:02:46;90967.63;;;8.27;65.67
39455;BME280;25155;41.890;23.446;2023-04-26T13:05:13;90972.84;;;8.27;65.05
39455;BME280;25155;41.890;23.446;2023-04-26T13:07:42;90977.28;;;8.26;65.56
39455;BME280;25155;41.890;23.446;2023-04-26T13:10:09;90979.50;;;8.19;65.25
39455;BME280;25155;41.890;23.446;2023-04-26T13:12:37;90991.56;;;8.15;65.25
39455;BME280;25155;41.890;23.446;2023-04-26T13:15:07;90983.94;;;8.05;65.63